createdAt,value
2023-11-30T00:01:44.414Z,13.25
2023-11-30T00:04:46.215Z,12.32
2023-11-30T00:07:48.211Z,11.68
2023-11-30T00:10:49.985Z,12.40
2023-11-30T00:13:51.790Z,12.30
2023-11-30T00:16:53.650Z,12.18
2023-11-30T00:19:55.552Z,13.43
2023-11-30T00:22:57.410Z,12.52
2023-11-30T00:25:59.118Z,11.70
2023-11-30T00:29:00.948Z,11.47
2023-11-30T00:32:02.762Z,13.00
2023-11-30T00:35:04.602Z,11.98
2023-11-30T00:38:06.585Z,10.98
2023-11-30T00:41:14.105Z,11.63
2023-11-30T00:44:19.466Z,13.43
2023-11-30T00:47:21.440Z,12.20
2023-11-30T00:50:23.355Z,11.05
2023-11-30T00:53:25.730Z,11.98
2023-11-30T00:56:27.507Z,10.40
2023-11-30T00:59:29.354Z,10.53
2023-11-30T01:02:31.110Z,10.52
2023-11-30T01:05:33.139Z,10.45
2023-11-30T01:08:34.854Z,12.07
2023-11-30T01:11:41.563Z,12.57
2023-11-30T01:14:43.305Z,10.83
2023-11-30T01:17:46.130Z,11.10
2023-11-30T01:20:47.963Z,11.18
2023-11-30T01:23:49.992Z,7.65
2023-11-30T01:26:51.852Z,10.23
2023-11-30T01:29:53.623Z,9.70
2023-11-30T01:32:55.455Z,9.30
2023-11-30T01:35:57.312Z,9.82
2023-11-30T01:38:59.180Z,9.65
2023-11-30T01:42:02.760Z,9.03
2023-11-30T01:45:06.010Z,10.30
2023-11-30T01:48:08.008Z,10.88
2023-11-30T01:51:10.241Z,11.20
2023-11-30T01:54:12.001Z,11.25
2023-11-30T01:57:15.199Z,12.03
2023-11-30T02:00:18.650Z,9.90
2023-11-30T02:03:26.136Z,9.52
2023-11-30T02:06:28.672Z,10.40
2023-11-30T02:09:30.578Z,8.50
2023-11-30T02:12:32.470Z,10.80
2023-11-30T02:15:34.501Z,9.93
2023-11-30T02:18:36.435Z,11.85
2023-11-30T02:21:38.319Z,10.93
2023-11-30T02:24:40.126Z,11.55
2023-11-30T02:27:41.988Z,9.83
2023-11-30T02:30:45.078Z,9.60
2023-11-30T02:33:46.905Z,10.68
2023-11-30T02:36:48.677Z,11.10
2023-11-30T02:39:50.441Z,8.88
2023-11-30T02:42:52.318Z,12.73
2023-11-30T02:45:54.117Z,10.40
2023-11-30T02:48:55.902Z,11.23
2023-11-30T02:51:58.075Z,11.30
2023-11-30T02:54:59.776Z,10.95
2023-11-30T02:58:01.700Z,10.57
2023-11-30T03:01:04.068Z,9.83
2023-11-30T03:04:05.965Z,10.68
2023-11-30T03:07:07.752Z,8.18
2023-11-30T03:10:09.780Z,8.55
2023-11-30T03:13:11.608Z,10.47
2023-11-30T03:16:13.487Z,8.97
2023-11-30T03:19:17.484Z,12.23
2023-11-30T03:22:19.602Z,12.05
2023-11-30T03:25:21.474Z,15.18
2023-11-30T03:28:23.263Z,10.93
2023-11-30T03:31:25.050Z,9.60
2023-11-30T03:34:26.944Z,11.15
2023-11-30T03:37:28.775Z,10.05
2023-11-30T03:40:30.501Z,11.13
2023-11-30T03:43:32.280Z,11.57
2023-11-30T03:46:34.185Z,17.47
2023-11-30T03:49:35.974Z,18.13
2023-11-30T03:52:37.726Z,14.73
2023-11-30T03:55:39.518Z,10.07
2023-11-30T03:58:41.454Z,10.10
2023-11-30T04:01:43.372Z,10.87
2023-11-30T04:04:45.226Z,13.45
2023-11-30T04:07:47.045Z,14.63
2023-11-30T04:10:48.894Z,10.63
2023-11-30T04:13:50.973Z,12.63
2023-11-30T04:16:52.855Z,13.30
2023-11-30T04:19:54.649Z,13.77
2023-11-30T04:22:56.390Z,12.45
2023-11-30T04:25:58.215Z,14.40
2023-11-30T04:28:59.987Z,11.80
2023-11-30T04:32:02.397Z,14.70
2023-11-30T04:35:04.483Z,11.00
2023-11-30T04:38:06.213Z,13.00
2023-11-30T04:41:11.843Z,12.68
2023-11-30T04:44:14.312Z,8.07
2023-11-30T04:47:16.484Z,5.37
2023-11-30T04:50:18.660Z,9.43
2023-11-30T04:53:20.482Z,4.78
2023-11-30T04:56:22.290Z,5.05
2023-11-30T04:59:24.217Z,9.83
2023-11-30T05:02:26.087Z,8.67
2023-11-30T05:05:27.935Z,9.20
2023-11-30T05:08:29.667Z,9.55
2023-11-30T05:11:31.577Z,11.57
2023-11-30T05:14:33.369Z,10.33
2023-11-30T05:17:35.211Z,12.23
2023-11-30T05:20:36.968Z,7.97
2023-11-30T05:23:38.727Z,10.60
2023-11-30T05:26:40.499Z,8.88
2023-11-30T05:29:42.195Z,5.50
2023-11-30T05:32:44.057Z,9.57
2023-11-30T05:35:46.088Z,11.40
2023-11-30T05:38:47.807Z,11.65
2023-11-30T05:41:49.745Z,10.32
2023-11-30T05:44:51.663Z,3.33
2023-11-30T05:47:53.663Z,6.40
2023-11-30T05:50:55.475Z,10.27
2023-11-30T05:53:57.312Z,13.52
2023-11-30T05:57:01.140Z,9.85
2023-11-30T06:00:04.944Z,8.97
2023-11-30T06:03:14.137Z,10.03
2023-11-30T06:06:16.053Z,10.73
2023-11-30T06:09:17.971Z,12.57
2023-11-30T06:12:20.085Z,11.38
2023-11-30T06:15:21.914Z,12.87
2023-11-30T06:18:24.417Z,11.83
2023-11-30T06:21:26.360Z,11.13
2023-11-30T06:24:28.278Z,10.30
2023-11-30T06:27:30.071Z,5.55
2023-11-30T06:30:31.823Z,10.60
2023-11-30T06:33:33.825Z,11.80
2023-11-30T06:36:35.667Z,12.02
2023-11-30T06:39:37.563Z,13.43
2023-11-30T06:42:39.743Z,15.07
2023-11-30T06:45:42.095Z,11.73
2023-11-30T06:48:44.763Z,10.83
2023-11-30T06:51:47.654Z,12.05
2023-11-30T06:54:49.442Z,11.57
2023-11-30T06:57:51.203Z,11.35
2023-11-30T07:00:53.001Z,10.33
2023-11-30T07:03:56.418Z,9.33
2023-11-30T07:06:58.219Z,12.50
2023-11-30T07:10:00.137Z,10.70
2023-11-30T07:13:01.970Z,12.48
2023-11-30T07:16:04.021Z,11.10
2023-11-30T07:19:05.831Z,13.63
2023-11-30T07:22:07.579Z,12.75
2023-11-30T07:25:09.501Z,12.13
2023-11-30T07:28:12.132Z,14.43
2023-11-30T07:31:22.086Z,10.90
2023-11-30T07:34:25.998Z,10.43
2023-11-30T07:37:28.034Z,13.10
2023-11-30T07:40:29.901Z,12.73
2023-11-30T07:43:34.404Z,13.50
2023-11-30T07:46:39.989Z,10.60
2023-11-30T07:49:42.972Z,14.37
2023-11-30T07:52:45.304Z,14.60
2023-11-30T07:55:47.140Z,10.35
2023-11-30T07:58:49.344Z,13.65
2023-11-30T08:01:51.168Z,13.33
2023-11-30T08:04:53.746Z,13.10
2023-11-30T08:07:57.177Z,13.32
2023-11-30T08:11:00.701Z,12.60
2023-11-30T08:14:03.834Z,12.02
2023-11-30T08:17:07.131Z,13.77
2023-11-30T08:20:15.444Z,15.27
2023-11-30T08:23:23.284Z,13.43
2023-11-30T08:26:26.861Z,10.73
2023-11-30T08:29:28.631Z,11.07
2023-11-30T08:32:30.391Z,7.87
2023-11-30T08:35:32.163Z,11.37
2023-11-30T08:38:34.670Z,14.43
2023-11-30T08:41:37.611Z,10.98
2023-11-30T08:44:39.391Z,11.68
2023-11-30T08:47:43.206Z,11.60
2023-11-30T08:50:45.093Z,11.93
2023-11-30T08:53:47.550Z,9.95
2023-11-30T08:56:49.292Z,11.75
2023-11-30T08:59:52.081Z,13.10
2023-11-30T09:02:53.846Z,10.87
2023-11-30T09:05:56.104Z,11.13
2023-11-30T09:08:57.926Z,10.65
2023-11-30T09:11:59.859Z,7.68
2023-11-30T09:15:01.796Z,9.98
2023-11-30T09:18:04.630Z,8.07
2023-11-30T09:21:07.358Z,10.27
2023-11-30T09:24:09.289Z,11.13
2023-11-30T09:27:11.512Z,7.18
2023-11-30T09:30:13.600Z,6.68
2023-11-30T09:33:15.583Z,8.37
2023-11-30T09:36:17.843Z,9.20
2023-11-30T09:39:21.135Z,10.60
2023-11-30T09:42:26.034Z,9.45
2023-11-30T09:45:27.959Z,11.68
2023-11-30T09:48:29.809Z,10.93
2023-11-30T09:51:32.868Z,8.67
2023-11-30T09:54:35.770Z,10.65
2023-11-30T09:57:37.879Z,11.23
2023-11-30T10:00:39.865Z,9.27
2023-11-30T10:03:42.622Z,8.23
2023-11-30T10:06:45.843Z,11.73
2023-11-30T10:09:47.687Z,8.30
2023-11-30T10:12:49.881Z,12.15
2023-11-30T10:15:51.829Z,9.32
2023-11-30T10:18:54.069Z,10.27
2023-11-30T10:21:57.194Z,11.43
2023-11-30T10:24:59.016Z,8.68
2023-11-30T10:28:01.794Z,11.18
2023-11-30T10:31:04.690Z,11.63
2023-11-30T10:34:08.922Z,10.37
2023-11-30T10:37:11.111Z,5.80
2023-11-30T10:40:13.496Z,8.82
2023-11-30T10:43:16.924Z,11.27
2023-11-30T10:46:19.368Z,9.10
2023-11-30T10:49:22.414Z,10.77
2023-11-30T10:52:24.475Z,11.20
2023-11-30T10:55:26.480Z,10.45
2023-11-30T10:58:28.259Z,9.98
2023-11-30T11:01:35.553Z,7.60
2023-11-30T11:04:39.357Z,10.50
2023-11-30T11:07:48.039Z,10.00
2023-11-30T11:10:51.694Z,11.70
2023-11-30T11:13:53.441Z,10.02
2023-11-30T11:17:03.147Z,10.15
2023-11-30T11:20:06.644Z,6.77
2023-11-30T11:23:09.686Z,6.93
2023-11-30T11:26:14.745Z,10.82
2023-11-30T11:29:23.821Z,9.07
2023-11-30T11:32:31.433Z,5.20
2023-11-30T11:35:33.354Z,9.33
2023-11-30T11:38:35.118Z,7.63
2023-11-30T11:41:37.046Z,6.65
2023-11-30T11:44:38.875Z,6.53
2023-11-30T11:47:40.980Z,6.28
2023-11-30T11:50:42.833Z,5.57
2023-11-30T11:53:44.644Z,6.60
2023-11-30T11:56:47.291Z,4.70
2023-11-30T11:59:51.956Z,8.05
2023-11-30T12:03:04.320Z,6.68
2023-11-30T12:06:06.303Z,8.83
2023-11-30T12:09:14.247Z,10.27
2023-11-30T12:12:16.249Z,8.18
2023-11-30T12:15:18.223Z,8.55
2023-11-30T12:18:20.416Z,8.25
2023-11-30T12:21:24.139Z,6.23
2023-11-30T12:24:25.922Z,7.77
2023-11-30T12:27:27.772Z,6.78
2023-11-30T12:30:29.630Z,7.50
2023-11-30T12:33:31.460Z,9.13
2023-11-30T12:36:33.320Z,7.03
2023-11-30T12:39:35.259Z,6.97
2023-11-30T12:42:37.769Z,8.32
2023-11-30T12:45:40.079Z,6.25
2023-11-30T12:48:42.298Z,8.10
2023-11-30T12:51:44.350Z,8.80
2023-11-30T12:54:46.304Z,7.60
2023-11-30T12:57:48.479Z,6.20
2023-11-30T13:00:50.395Z,9.02
2023-11-30T13:03:52.331Z,7.25
2023-11-30T13:06:54.239Z,6.30
2023-11-30T13:09:56.060Z,7.73
2023-11-30T13:12:58.000Z,7.72
2023-11-30T13:16:02.132Z,6.50
2023-11-30T13:19:04.500Z,6.03
2023-11-30T13:22:06.528Z,7.87
2023-11-30T13:25:11.276Z,6.80
2023-11-30T13:28:13.683Z,5.32
2023-11-30T13:31:15.486Z,8.90
2023-11-30T13:34:17.370Z,8.48
2023-11-30T13:37:19.472Z,7.20
2023-11-30T13:40:21.836Z,8.60
2023-11-30T13:43:24.209Z,7.40
2023-11-30T13:46:26.092Z,7.15
2023-11-30T13:49:28.165Z,7.68
2023-11-30T13:52:30.056Z,5.77
2023-11-30T13:55:31.897Z,8.27
2023-11-30T13:58:34.244Z,8.95
2023-11-30T14:01:36.438Z,8.93
2023-11-30T14:04:38.300Z,9.98
2023-11-30T14:07:40.208Z,10.00
2023-11-30T14:10:42.437Z,6.87
2023-11-30T14:13:44.751Z,7.57
2023-11-30T14:16:46.582Z,8.48
2023-11-30T14:19:48.697Z,7.38
2023-11-30T14:22:50.602Z,9.53
2023-11-30T14:25:52.499Z,8.67
2023-11-30T14:28:54.245Z,9.60
2023-11-30T14:31:56.132Z,8.20
2023-11-30T14:34:57.973Z,6.65
2023-11-30T14:38:00.211Z,7.87
2023-11-30T14:41:02.078Z,7.13
2023-11-30T14:44:04.113Z,8.68
2023-11-30T14:47:09.121Z,7.82
2023-11-30T14:50:11.709Z,5.85
2023-11-30T14:53:14.249Z,8.20
2023-11-30T14:56:16.284Z,7.57
2023-11-30T14:59:18.173Z,9.43
2023-11-30T15:02:20.146Z,8.10
2023-11-30T15:05:22.282Z,9.00
2023-11-30T15:08:24.160Z,8.37
2023-11-30T15:11:26.237Z,7.40
2023-11-30T15:14:28.305Z,7.78
2023-11-30T15:17:30.192Z,6.97
2023-11-30T15:20:32.171Z,8.98
2023-11-30T15:23:34.752Z,9.03
2023-11-30T15:26:36.635Z,9.37
2023-11-30T15:29:38.470Z,9.98
2023-11-30T15:32:40.354Z,9.57
2023-11-30T15:35:42.345Z,8.20
2023-11-30T15:38:44.392Z,8.90
2023-11-30T15:41:51.312Z,8.93
2023-11-30T15:44:53.048Z,10.85
2023-11-30T15:47:54.855Z,8.52
2023-11-30T15:50:57.960Z,10.00
2023-11-30T15:53:59.794Z,9.93
2023-11-30T15:57:01.586Z,8.43
2023-11-30T16:00:03.500Z,7.00
2023-11-30T16:03:14.065Z,9.63
2023-11-30T16:06:16.078Z,7.53
2023-11-30T16:09:17.905Z,9.00
2023-11-30T16:12:19.921Z,8.03
2023-11-30T16:15:21.974Z,8.85
2023-11-30T16:18:24.051Z,6.03
2023-11-30T16:21:28.609Z,7.32
2023-11-30T16:24:31.477Z,8.73
2023-11-30T16:27:33.514Z,8.53
2023-11-30T16:30:35.466Z,7.90
2023-11-30T16:33:37.342Z,5.70
2023-11-30T16:36:39.204Z,7.15
2023-11-30T16:39:41.014Z,5.47
2023-11-30T16:42:42.858Z,5.57
2023-11-30T16:45:44.716Z,8.02
2023-11-30T16:48:47.732Z,9.88
2023-11-30T16:51:55.330Z,8.25
2023-11-30T16:55:01.585Z,7.87
2023-11-30T16:58:04.727Z,10.40
2023-11-30T17:01:08.917Z,11.00
2023-11-30T17:04:11.026Z,9.05
2023-11-30T17:07:12.983Z,12.88
2023-11-30T17:10:14.894Z,9.60
2023-11-30T17:13:16.837Z,9.60
2023-11-30T17:16:18.614Z,11.00
2023-11-30T17:19:20.482Z,10.23
2023-11-30T17:22:22.298Z,9.07
2023-11-30T17:25:24.161Z,11.97
2023-11-30T17:28:26.155Z,11.07
2023-11-30T17:31:27.903Z,12.95
2023-11-30T17:34:29.867Z,12.20
2023-11-30T17:37:31.771Z,11.15
2023-11-30T17:40:33.509Z,9.60
2023-11-30T17:43:35.361Z,11.47
2023-11-30T17:46:37.213Z,13.38
2023-11-30T17:49:39.432Z,12.60
2023-11-30T17:52:41.291Z,10.80
2023-11-30T17:55:43.116Z,7.77
2023-11-30T17:58:44.907Z,11.60
2023-11-30T18:01:46.762Z,10.23
2023-11-30T18:04:48.922Z,10.50
2023-11-30T18:07:51.169Z,8.95
2023-11-30T18:10:53.097Z,11.10
2023-11-30T18:13:54.874Z,11.37
2023-11-30T18:16:56.751Z,12.35
2023-11-30T18:19:58.788Z,12.38
2023-11-30T18:23:00.978Z,12.52
2023-11-30T18:26:02.754Z,12.30
2023-11-30T18:29:04.541Z,12.40
2023-11-30T18:32:06.462Z,11.30
2023-11-30T18:35:08.300Z,9.52
2023-11-30T18:38:10.103Z,11.65
2023-11-30T18:41:13.583Z,8.93
2023-11-30T18:44:15.373Z,8.63
2023-11-30T18:47:17.258Z,10.70
2023-11-30T18:50:19.168Z,10.10
2023-11-30T18:53:21.045Z,9.20
2023-11-30T18:56:24.021Z,6.60
2023-11-30T18:59:28.009Z,10.60
2023-11-30T19:02:30.659Z,7.95
2023-11-30T19:05:32.518Z,8.18
2023-11-30T19:08:35.590Z,4.03
2023-11-30T19:11:37.402Z,10.13
2023-11-30T19:14:40.734Z,7.63
2023-11-30T19:17:46.426Z,6.25
2023-11-30T19:20:48.403Z,6.95
2023-11-30T19:23:50.671Z,5.68
2023-11-30T19:26:52.520Z,7.10
2023-11-30T19:29:54.356Z,6.20
2023-11-30T19:32:56.309Z,6.20
2023-11-30T19:35:58.217Z,3.90
2023-11-30T19:39:00.385Z,5.28
2023-11-30T19:42:02.116Z,5.80
2023-11-30T19:45:03.973Z,6.17
2023-11-30T19:48:05.929Z,5.15
2023-11-30T19:51:07.983Z,5.03
2023-11-30T19:54:09.842Z,5.13
2023-11-30T19:57:11.648Z,4.63
2023-11-30T20:00:13.594Z,6.53
2023-11-30T20:03:15.458Z,4.32
2023-11-30T20:06:17.583Z,6.50
2023-11-30T20:09:20.165Z,6.72
2023-11-30T20:12:22.032Z,5.03
2023-11-30T20:15:24.003Z,5.93
2023-11-30T20:18:25.814Z,6.15
2023-11-30T20:21:27.589Z,5.50
2023-11-30T20:24:31.720Z,6.15
2023-11-30T20:27:34.092Z,5.73
2023-11-30T20:30:35.972Z,5.07
2023-11-30T20:33:37.765Z,6.30
2023-11-30T20:36:39.625Z,5.70
2023-11-30T20:39:41.503Z,4.75
2023-11-30T20:42:44.418Z,4.33
2023-11-30T20:45:46.398Z,4.37
2023-11-30T20:48:48.246Z,3.47
2023-11-30T20:51:50.270Z,3.78
2023-11-30T20:54:52.085Z,3.50
2023-11-30T20:57:53.962Z,3.57
2023-11-30T21:00:55.843Z,4.67
2023-11-30T21:03:57.951Z,2.80
2023-11-30T21:06:59.865Z,3.05
2023-11-30T21:10:01.869Z,2.72
2023-11-30T21:13:03.709Z,3.20
2023-11-30T21:16:05.850Z,3.07
2023-11-30T21:19:08.919Z,4.10
2023-11-30T21:22:10.929Z,5.40
2023-11-30T21:25:13.932Z,4.78
2023-11-30T21:28:15.857Z,7.30
2023-11-30T21:31:17.788Z,6.20
2023-11-30T21:34:19.620Z,6.20
2023-11-30T21:37:21.604Z,5.68
2023-11-30T21:40:23.392Z,7.53
2023-11-30T21:43:26.214Z,7.20
2023-11-30T21:46:28.043Z,6.50
2023-11-30T21:49:29.851Z,6.85
2023-11-30T21:52:31.643Z,6.55
2023-11-30T21:55:33.424Z,6.70
2023-11-30T21:58:35.151Z,8.70
2023-11-30T22:01:37.242Z,7.80
2023-11-30T22:04:39.284Z,8.93
2023-11-30T22:07:41.753Z,6.95
2023-11-30T22:10:43.992Z,7.57
2023-11-30T22:13:46.261Z,7.13
2023-11-30T22:16:48.205Z,11.00
2023-11-30T22:19:49.985Z,10.57
2023-11-30T22:22:51.796Z,10.23
2023-11-30T22:25:58.851Z,8.43
2023-11-30T22:29:05.812Z,7.33
2023-11-30T22:32:07.877Z,6.80
2023-11-30T22:35:09.829Z,9.20
2023-11-30T22:38:11.675Z,9.20
2023-11-30T22:41:14.849Z,9.73
2023-11-30T22:44:17.025Z,8.90
2023-11-30T22:47:18.864Z,10.47
2023-11-30T22:50:20.657Z,9.48
2023-11-30T22:53:22.551Z,9.50
2023-11-30T22:56:25.229Z,9.05
2023-11-30T22:59:27.138Z,8.07
2023-11-30T23:02:29.227Z,7.63
2023-11-30T23:05:31.606Z,7.90
2023-11-30T23:08:33.504Z,8.02
2023-11-30T23:11:35.337Z,7.85
2023-11-30T23:14:37.510Z,9.03
2023-11-30T23:17:39.423Z,8.53
2023-11-30T23:20:41.283Z,7.32
2023-11-30T23:23:43.039Z,6.68
2023-11-30T23:26:44.847Z,7.28
2023-11-30T23:29:46.594Z,8.07
2023-11-30T23:32:50.053Z,6.20
2023-11-30T23:35:53.359Z,7.10
2023-11-30T23:38:55.212Z,7.25
2023-11-30T23:41:57.003Z,6.63
2023-11-30T23:45:01.324Z,4.47
2023-11-30T23:48:03.732Z,8.03
2023-11-30T23:51:05.816Z,6.93
2023-11-30T23:54:07.665Z,8.57
2023-11-30T23:57:09.518Z,7.97
